createdAt,value
2018-02-02T00:01:53.365Z,3.20
2018-02-02T00:04:20.729Z,3.57
2018-02-02T00:06:48.055Z,3.67
2018-02-02T00:09:15.381Z,3.67
2018-02-02T00:11:42.817Z,3.40
2018-02-02T00:14:10.155Z,3.80
2018-02-02T00:16:37.501Z,3.73
2018-02-02T00:19:04.825Z,3.73
2018-02-02T00:21:32.170Z,4.10
2018-02-02T00:23:59.519Z,4.60
2018-02-02T00:26:26.882Z,4.33
2018-02-02T00:28:54.206Z,4.17
2018-02-02T00:31:21.538Z,3.60
2018-02-02T00:33:48.901Z,3.57
2018-02-02T00:36:16.237Z,3.10
2018-02-02T00:38:43.595Z,3.80
2018-02-02T00:41:10.932Z,3.60
2018-02-02T00:43:38.285Z,3.93
2018-02-02T00:46:05.636Z,4.53
2018-02-02T00:48:32.981Z,3.70
2018-02-02T00:51:06.097Z,3.63
2018-02-02T00:53:33.446Z,4.23
2018-02-02T00:56:00.814Z,4.50
2018-02-02T00:58:28.161Z,4.00
2018-02-02T01:00:55.480Z,3.77
2018-02-02T01:03:22.867Z,3.90
2018-02-02T01:05:50.198Z,4.43
2018-02-02T01:08:17.610Z,4.30
2018-02-02T01:10:44.928Z,4.90
2018-02-02T01:13:12.295Z,4.77
2018-02-02T01:15:39.633Z,4.30
2018-02-02T01:18:07.030Z,4.83
2018-02-02T01:20:34.353Z,5.30
2018-02-02T01:23:01.706Z,4.67
2018-02-02T01:25:29.060Z,4.60
2018-02-02T01:27:56.384Z,4.60
2018-02-02T01:30:23.730Z,4.80
2018-02-02T01:32:51.055Z,4.50
2018-02-02T01:35:18.395Z,4.00
2018-02-02T01:37:45.730Z,4.80
2018-02-02T01:40:13.085Z,4.60
2018-02-02T01:42:40.414Z,4.33
2018-02-02T01:45:07.789Z,5.10
2018-02-02T01:47:35.123Z,3.97
2018-02-02T01:50:02.443Z,4.10
2018-02-02T01:52:29.898Z,5.13
2018-02-02T01:54:57.225Z,4.67
2018-02-02T01:57:24.577Z,4.80
2018-02-02T01:59:51.918Z,4.73
2018-02-02T02:02:19.275Z,4.90
2018-02-02T02:04:46.637Z,4.40
2018-02-02T02:07:14.022Z,4.60
2018-02-02T02:09:41.355Z,5.27
2018-02-02T02:12:08.715Z,5.60
2018-02-02T02:14:36.190Z,4.50
2018-02-02T02:17:03.534Z,4.30
2018-02-02T02:19:30.950Z,4.50
2018-02-02T02:21:58.294Z,3.60
2018-02-02T02:24:25.657Z,3.90
2018-02-02T02:26:53.066Z,3.63
2018-02-02T02:29:20.385Z,3.97
2018-02-02T02:31:47.750Z,3.30
2018-02-02T02:34:15.131Z,3.83
2018-02-02T02:36:42.486Z,3.13
2018-02-02T02:39:09.833Z,3.47
2018-02-02T02:41:37.303Z,2.50
2018-02-02T02:44:04.756Z,3.17
2018-02-02T02:46:32.146Z,3.10
2018-02-02T02:48:59.479Z,3.40
2018-02-02T02:51:26.819Z,2.80
2018-02-02T02:53:54.178Z,2.87
2018-02-02T02:56:21.532Z,2.57
2018-02-02T02:58:48.990Z,2.77
2018-02-02T03:01:16.346Z,2.67
2018-02-02T03:03:43.716Z,3.10
2018-02-02T03:06:11.058Z,3.23
2018-02-02T03:08:38.385Z,3.70
2018-02-02T03:11:05.738Z,3.20
2018-02-02T03:13:33.120Z,3.23
2018-02-02T03:16:00.576Z,3.40
2018-02-02T03:18:27.895Z,3.70
2018-02-02T03:20:55.311Z,3.67
2018-02-02T03:23:22.637Z,3.70
2018-02-02T03:25:50.098Z,3.47
2018-02-02T03:28:17.427Z,3.40
2018-02-02T03:30:44.753Z,3.50
2018-02-02T03:33:12.106Z,4.60
2018-02-02T03:35:39.516Z,3.30
2018-02-02T03:38:06.913Z,3.20
2018-02-02T03:40:34.241Z,3.13
2018-02-02T03:43:01.596Z,2.90
2018-02-02T03:45:28.922Z,3.60
2018-02-02T03:47:56.289Z,3.13
2018-02-02T03:50:23.629Z,2.90
2018-02-02T03:52:50.980Z,3.40
2018-02-02T03:55:18.337Z,3.33
2018-02-02T03:57:45.687Z,3.80
2018-02-02T04:00:13.029Z,3.50
2018-02-02T04:02:40.522Z,3.77
2018-02-02T04:05:07.877Z,3.73
2018-02-02T04:07:35.226Z,3.87
2018-02-02T04:10:02.582Z,3.83
2018-02-02T04:12:29.919Z,4.87
2018-02-02T04:14:57.398Z,3.50
2018-02-02T04:17:24.737Z,3.77
2018-02-02T04:19:52.105Z,3.50
2018-02-02T04:22:19.450Z,3.80
2018-02-02T04:24:46.770Z,3.53
2018-02-02T04:27:14.170Z,3.80
2018-02-02T04:29:41.485Z,3.20
2018-02-02T04:32:08.854Z,3.80
2018-02-02T04:34:36.234Z,3.30
2018-02-02T04:37:03.593Z,3.30
2018-02-02T04:39:30.944Z,3.23
2018-02-02T04:41:58.262Z,4.73
2018-02-02T04:44:25.635Z,3.50
2018-02-02T04:46:52.968Z,3.97
2018-02-02T04:49:20.328Z,4.03
2018-02-02T04:51:47.650Z,2.97
2018-02-02T04:54:14.982Z,3.13
2018-02-02T04:56:42.335Z,2.43
2018-02-02T04:59:09.782Z,3.47
2018-02-02T05:01:37.239Z,3.07
2018-02-02T05:04:04.560Z,2.53
2018-02-02T05:06:31.921Z,2.73
2018-02-02T05:08:59.304Z,2.80
2018-02-02T05:11:26.659Z,1.87
2018-02-02T05:13:54.023Z,2.50
2018-02-02T05:16:21.345Z,2.57
2018-02-02T05:18:48.705Z,2.80
2018-02-02T05:21:16.058Z,2.53
2018-02-02T05:23:43.571Z,3.37
2018-02-02T05:26:10.896Z,3.03
2018-02-02T05:28:38.226Z,3.50
2018-02-02T05:31:05.582Z,3.23
2018-02-02T05:33:32.910Z,2.97
2018-02-02T05:36:00.255Z,3.60
2018-02-02T05:38:27.665Z,3.73
2018-02-02T05:40:55.041Z,2.77
2018-02-02T05:43:22.377Z,2.87
2018-02-02T05:45:49.831Z,3.30
2018-02-02T05:48:17.157Z,2.97
2018-02-02T05:50:44.512Z,2.83
2018-02-02T05:53:11.903Z,2.50
2018-02-02T05:55:39.248Z,3.53
2018-02-02T05:58:06.589Z,3.73
2018-02-02T06:00:33.911Z,4.03
2018-02-02T06:03:01.261Z,3.03
2018-02-02T06:05:28.670Z,2.90
2018-02-02T06:07:56.029Z,3.60
2018-02-02T06:10:23.360Z,3.20
2018-02-02T06:12:50.735Z,3.50
2018-02-02T06:15:18.090Z,3.00
2018-02-02T06:17:45.462Z,3.90
2018-02-02T06:20:12.901Z,3.33
2018-02-02T06:22:40.242Z,3.03
2018-02-02T06:25:07.612Z,3.20
2018-02-02T06:27:34.933Z,3.07
2018-02-02T06:30:02.318Z,3.00
2018-02-02T06:32:29.673Z,2.67
2018-02-02T06:34:57.007Z,3.30
2018-02-02T06:37:24.358Z,3.60
2018-02-02T06:39:51.737Z,3.47
2018-02-02T06:42:19.082Z,2.90
2018-02-02T06:44:46.446Z,3.50
2018-02-02T06:47:13.821Z,3.13
2018-02-02T06:49:41.259Z,2.50
2018-02-02T06:52:08.710Z,2.80
2018-02-02T06:54:36.170Z,2.37
2018-02-02T06:57:03.491Z,2.90
2018-02-02T06:59:30.846Z,2.80
2018-02-02T07:01:58.169Z,3.10
2018-02-02T07:04:25.519Z,2.90
2018-02-02T07:06:52.837Z,2.67
2018-02-02T07:09:20.219Z,2.63
2018-02-02T07:11:47.552Z,2.63
2018-02-02T07:14:14.909Z,3.07
2018-02-02T07:16:42.224Z,3.03
2018-02-02T07:19:09.618Z,3.10
2018-02-02T07:21:36.965Z,5.00
2018-02-02T07:24:04.298Z,4.03
2018-02-02T07:26:31.656Z,3.57
2018-02-02T07:28:58.986Z,4.20
2018-02-02T07:31:26.335Z,3.63
2018-02-02T07:33:53.658Z,3.90
2018-02-02T07:36:21.018Z,3.00
2018-02-02T07:38:48.341Z,3.17
2018-02-02T07:41:15.667Z,3.77
2018-02-02T07:43:43.117Z,3.80
2018-02-02T07:46:10.462Z,3.77
2018-02-02T07:48:37.820Z,3.37
2018-02-02T07:51:05.154Z,3.50
2018-02-02T07:53:32.505Z,3.47
2018-02-02T07:55:59.955Z,3.10
2018-02-02T07:58:27.314Z,3.57
2018-02-02T08:01:00.284Z,3.00
2018-02-02T08:03:27.598Z,3.37
2018-02-02T08:05:54.947Z,2.90
2018-02-02T08:08:22.268Z,2.87
2018-02-02T08:10:49.636Z,3.33
2018-02-02T08:13:16.953Z,3.87
2018-02-02T08:15:44.341Z,3.63
2018-02-02T08:18:11.662Z,3.57
2018-02-02T08:20:39.005Z,14.27
2018-02-02T08:23:06.370Z,5.47
2018-02-02T08:25:33.690Z,4.20
2018-02-02T08:28:01.044Z,3.30
2018-02-02T08:30:28.376Z,3.53
2018-02-02T08:32:55.718Z,3.77
2018-02-02T08:35:23.053Z,3.10
2018-02-02T08:37:50.374Z,4.47
2018-02-02T08:40:17.727Z,2.93
2018-02-02T08:42:45.049Z,3.00
2018-02-02T08:45:12.415Z,3.67
2018-02-02T08:47:39.742Z,3.87
2018-02-02T08:50:07.102Z,3.87
2018-02-02T08:52:34.424Z,3.27
2018-02-02T08:55:01.775Z,3.67
2018-02-02T08:57:29.145Z,4.83
2018-02-02T08:59:56.466Z,3.83
2018-02-02T09:02:23.828Z,3.50
2018-02-02T09:04:51.141Z,3.27
2018-02-02T09:07:18.603Z,3.43
2018-02-02T09:09:45.917Z,4.57
2018-02-02T09:12:13.471Z,3.30
2018-02-02T09:14:40.790Z,3.43
2018-02-02T09:17:08.118Z,3.13
2018-02-02T09:19:35.482Z,3.57
2018-02-02T09:22:02.567Z,2.90
2018-02-02T09:24:30.037Z,3.50
2018-02-02T09:26:56.957Z,3.67
2018-02-02T09:29:24.305Z,3.00
2018-02-02T09:31:51.641Z,3.37
2018-02-02T09:34:18.994Z,2.80
2018-02-02T09:36:46.325Z,4.70
2018-02-02T09:39:13.685Z,3.10
2018-02-02T09:41:41.013Z,2.37
2018-02-02T09:44:08.335Z,3.33
2018-02-02T09:46:35.686Z,4.00
2018-02-02T09:49:03.004Z,6.70
2018-02-02T09:51:30.361Z,3.73
2018-02-02T09:53:57.841Z,2.97
2018-02-02T09:56:25.209Z,3.47
2018-02-02T09:58:52.537Z,3.67
2018-02-02T10:01:19.894Z,3.10
2018-02-02T10:03:47.233Z,2.93
2018-02-02T10:06:14.557Z,3.20
2018-02-02T10:08:41.904Z,3.17
2018-02-02T10:11:09.258Z,3.10
2018-02-02T10:13:36.601Z,3.37
2018-02-02T10:16:03.926Z,3.00
2018-02-02T10:18:31.279Z,3.57
2018-02-02T10:20:58.607Z,3.27
2018-02-02T10:23:25.964Z,3.60
2018-02-02T10:25:53.290Z,4.00
2018-02-02T10:28:20.659Z,3.53
2018-02-02T10:30:47.979Z,3.23
2018-02-02T10:33:15.325Z,3.50
2018-02-02T10:35:42.673Z,3.50
2018-02-02T10:38:10.000Z,3.00
2018-02-02T10:40:37.349Z,3.37
2018-02-02T10:43:04.679Z,3.07
2018-02-02T10:45:32.029Z,3.53
2018-02-02T10:47:59.360Z,2.93
2018-02-02T10:50:26.720Z,3.30
2018-02-02T10:52:54.047Z,3.90
2018-02-02T10:55:21.438Z,4.40
2018-02-02T10:57:48.761Z,3.93
2018-02-02T11:00:16.083Z,3.50
2018-02-02T11:02:49.132Z,4.00
2018-02-02T11:05:16.603Z,3.63
2018-02-02T11:07:43.961Z,3.67
2018-02-02T11:10:11.278Z,3.00
2018-02-02T11:12:38.649Z,3.03
2018-02-02T11:15:05.968Z,3.20
2018-02-02T11:17:33.298Z,3.40
2018-02-02T11:20:00.734Z,2.90
2018-02-02T11:22:28.065Z,2.50
2018-02-02T11:24:55.418Z,2.70
2018-02-02T11:27:22.738Z,2.00
2018-02-02T11:29:50.086Z,2.67
2018-02-02T11:32:17.406Z,3.30
2018-02-02T11:34:44.769Z,3.60
2018-02-02T11:37:12.089Z,3.93
2018-02-02T11:39:39.418Z,2.43
2018-02-02T11:42:06.771Z,2.80
2018-02-02T11:44:34.098Z,2.17
2018-02-02T11:47:01.444Z,2.83
2018-02-02T11:49:28.762Z,3.00
2018-02-02T11:51:56.151Z,2.60
2018-02-02T11:54:23.474Z,3.37
2018-02-02T11:56:50.831Z,2.50
2018-02-02T11:59:18.167Z,2.67
2018-02-02T12:01:45.508Z,2.80
2018-02-02T12:04:12.849Z,4.03
2018-02-02T12:06:40.169Z,3.40
2018-02-02T12:09:07.520Z,3.03
2018-02-02T12:11:34.836Z,3.57
2018-02-02T12:14:02.186Z,3.70
2018-02-02T12:16:29.523Z,3.00
2018-02-02T12:18:56.873Z,3.60
2018-02-02T12:21:24.210Z,3.73
2018-02-02T12:23:58.150Z,3.00
2018-02-02T12:26:31.132Z,4.10
2018-02-02T12:29:14.320Z,3.47
2018-02-02T12:31:57.386Z,2.97
2018-02-02T12:34:25.666Z,3.30
2018-02-02T12:36:52.992Z,4.50
2018-02-02T12:39:20.313Z,5.60
2018-02-02T12:41:47.670Z,4.50
2018-02-02T12:44:15.019Z,3.87
2018-02-02T12:46:42.370Z,3.07
2018-02-02T12:49:09.694Z,3.40
2018-02-02T12:51:37.062Z,4.37
2018-02-02T12:54:04.386Z,2.90
2018-02-02T12:56:31.733Z,3.63
2018-02-02T12:58:59.065Z,3.50
2018-02-02T13:01:27.377Z,3.60
2018-02-02T13:03:54.702Z,3.20
2018-02-02T13:06:22.067Z,3.40
2018-02-02T13:08:49.410Z,2.60
2018-02-02T13:11:16.742Z,2.27
2018-02-02T13:13:44.738Z,3.83
2018-02-02T13:16:12.067Z,3.40
2018-02-02T13:18:39.437Z,3.10
2018-02-02T13:21:06.803Z,3.00
2018-02-02T13:23:34.118Z,2.47
2018-02-02T13:26:01.492Z,3.33
2018-02-02T13:28:28.813Z,3.03
2018-02-02T13:30:56.162Z,3.40
2018-02-02T13:33:23.487Z,3.60
2018-02-02T13:35:50.849Z,3.63
2018-02-02T13:38:18.181Z,4.17
2018-02-02T13:40:45.501Z,3.60
2018-02-02T13:43:12.851Z,3.80
2018-02-02T13:45:40.177Z,3.10
2018-02-02T13:48:07.523Z,3.07
2018-02-02T13:50:34.850Z,2.93
2018-02-02T13:53:02.211Z,3.50
2018-02-02T13:55:29.538Z,2.93
2018-02-02T13:57:56.861Z,3.60
2018-02-02T14:00:24.211Z,3.47
2018-02-02T14:02:51.533Z,3.43
2018-02-02T14:05:18.883Z,3.27
2018-02-02T14:07:46.213Z,3.70
2018-02-02T14:10:13.573Z,4.10
2018-02-02T14:12:40.898Z,3.83
2018-02-02T14:15:08.218Z,3.70
2018-02-02T14:17:35.557Z,4.80
2018-02-02T14:20:02.884Z,4.40
2018-02-02T14:22:30.238Z,4.13
2018-02-02T14:24:57.570Z,3.10
2018-02-02T14:27:24.933Z,3.80
2018-02-02T14:29:52.256Z,3.43
2018-02-02T14:32:19.587Z,3.00
2018-02-02T14:34:46.937Z,3.50
2018-02-02T14:37:14.262Z,3.03
2018-02-02T14:39:41.616Z,3.30
2018-02-02T14:42:08.942Z,3.80
2018-02-02T14:44:36.290Z,2.70
2018-02-02T14:47:03.613Z,2.63
2018-02-02T14:49:30.968Z,3.47
2018-02-02T14:51:58.297Z,3.10
2018-02-02T14:54:25.612Z,4.10
2018-02-02T14:56:52.961Z,2.80
2018-02-02T14:59:20.286Z,3.10
2018-02-02T15:01:47.663Z,2.93
2018-02-02T15:04:14.982Z,3.20
2018-02-02T15:06:42.326Z,3.30
2018-02-02T15:09:09.650Z,3.17
2018-02-02T15:11:36.975Z,3.30
2018-02-02T15:14:04.312Z,2.57
2018-02-02T15:16:31.654Z,3.27
2018-02-02T15:18:59.014Z,3.37
2018-02-02T15:21:26.352Z,3.07
2018-02-02T15:23:53.700Z,3.07
2018-02-02T15:26:21.022Z,3.77
2018-02-02T15:28:48.377Z,2.90
2018-02-02T15:31:15.698Z,3.70
2018-02-02T15:33:43.049Z,3.63
2018-02-02T15:36:10.398Z,3.80
2018-02-02T15:38:37.715Z,4.07
2018-02-02T15:41:05.065Z,4.83
2018-02-02T15:43:32.386Z,3.63
2018-02-02T15:45:59.725Z,4.00
2018-02-02T15:48:27.042Z,3.23
2018-02-02T15:50:54.399Z,3.33
2018-02-02T15:53:21.727Z,4.23
2018-02-02T15:55:49.050Z,4.10
2018-02-02T15:58:16.393Z,3.83
2018-02-02T16:00:43.731Z,4.63
2018-02-02T16:03:11.080Z,4.00
2018-02-02T16:05:38.410Z,3.17
2018-02-02T16:08:05.757Z,3.30
2018-02-02T16:10:33.086Z,5.65
2018-02-02T16:13:00.429Z,5.27
2018-02-02T16:15:27.750Z,4.43
2018-02-02T16:17:55.107Z,4.10
2018-02-02T16:20:23.049Z,4.87
2018-02-02T16:22:50.364Z,3.80
2018-02-02T16:25:17.725Z,4.60
2018-02-02T16:27:45.045Z,4.40
2018-02-02T16:30:12.408Z,3.73
2018-02-02T16:32:39.745Z,3.87
2018-02-02T16:35:07.103Z,4.20
2018-02-02T16:37:34.449Z,4.97
2018-02-02T16:40:01.799Z,3.73
2018-02-02T16:42:29.148Z,8.30
2018-02-02T16:44:56.498Z,4.37
2018-02-02T16:47:23.833Z,4.20
2018-02-02T16:49:51.198Z,4.80
2018-02-02T16:52:18.529Z,3.80
2018-02-02T16:54:45.860Z,4.07
2018-02-02T16:57:13.210Z,4.00
2018-02-02T16:59:40.527Z,4.57
2018-02-02T17:02:07.881Z,4.40
2018-02-02T17:04:35.212Z,4.20
2018-02-02T17:07:02.591Z,3.70
2018-02-02T17:09:29.911Z,4.80
2018-02-02T17:11:57.266Z,5.03
2018-02-02T17:14:24.619Z,5.30
2018-02-02T17:16:51.936Z,4.20
2018-02-02T17:19:19.289Z,3.77
2018-02-02T17:21:46.610Z,3.70
2018-02-02T17:24:13.967Z,4.10
2018-02-02T17:26:41.282Z,3.77
2018-02-02T17:29:08.618Z,3.50
2018-02-02T17:31:35.974Z,5.50
2018-02-02T17:34:03.538Z,6.10
2018-02-02T17:36:30.992Z,5.70
2018-02-02T17:38:58.328Z,4.70
2018-02-02T17:41:25.679Z,5.53
2018-02-02T17:43:53.019Z,5.20
2018-02-02T17:46:24.994Z,7.13
2018-02-02T17:48:52.322Z,7.30
2018-02-02T17:51:19.674Z,5.97
2018-02-02T17:53:47.004Z,4.67
2018-02-02T17:56:14.329Z,7.03
2018-02-02T17:58:41.893Z,4.67
2018-02-02T18:01:26.054Z,5.93
2018-02-02T18:03:53.416Z,5.80
2018-02-02T18:06:20.743Z,4.23
2018-02-02T18:08:48.150Z,4.13
2018-02-02T18:11:15.461Z,4.27
2018-02-02T18:13:42.837Z,3.57
2018-02-02T18:16:10.169Z,3.97
2018-02-02T18:18:37.494Z,3.87
2018-02-02T18:21:04.851Z,7.63
2018-02-02T18:23:32.178Z,4.00
2018-02-02T18:25:59.528Z,5.30
2018-02-02T18:28:26.851Z,4.10
2018-02-02T18:30:54.202Z,4.13
2018-02-02T18:33:21.526Z,5.60
2018-02-02T18:35:48.891Z,3.73
2018-02-02T18:38:16.216Z,5.27
2018-02-02T18:40:43.548Z,4.00
2018-02-02T18:43:10.919Z,4.27
2018-02-02T18:45:38.249Z,4.07
2018-02-02T18:48:05.611Z,5.70
2018-02-02T18:50:32.954Z,5.03
2018-02-02T18:53:00.355Z,6.10
2018-02-02T18:55:27.684Z,4.63
2018-02-02T18:57:55.107Z,4.20
2018-02-02T19:00:22.420Z,4.10
2018-02-02T19:02:49.829Z,3.47
2018-02-02T19:05:17.197Z,3.23
2018-02-02T19:07:44.842Z,3.30
2018-02-02T19:10:12.269Z,3.10
2018-02-02T19:12:39.671Z,3.87
2018-02-02T19:15:07.093Z,3.10
2018-02-02T19:17:34.466Z,3.70
2018-02-02T19:20:01.894Z,3.60
2018-02-02T19:22:29.293Z,3.00
2018-02-02T19:24:56.694Z,2.97
2018-02-02T19:27:24.015Z,3.37
2018-02-02T19:29:51.347Z,4.03
2018-02-02T19:32:18.745Z,3.37
2018-02-02T19:34:46.114Z,3.23
2018-02-02T19:37:13.541Z,3.00
2018-02-02T19:39:40.933Z,3.97
2018-02-02T19:42:08.353Z,4.50
2018-02-02T19:44:35.674Z,4.10
2018-02-02T19:47:03.005Z,4.53
2018-02-02T19:49:30.357Z,4.17
2018-02-02T19:51:57.732Z,4.47
2018-02-02T19:54:25.126Z,4.73
2018-02-02T19:56:52.443Z,4.03
2018-02-02T19:59:19.807Z,4.13
2018-02-02T20:01:47.184Z,3.63
2018-02-02T20:04:14.539Z,4.17
2018-02-02T20:06:41.863Z,3.90
2018-02-02T20:09:09.235Z,5.40
2018-02-02T20:11:36.591Z,5.00
2018-02-02T20:14:03.965Z,8.30
2018-02-02T20:16:31.372Z,11.03
2018-02-02T20:18:58.712Z,10.20
2018-02-02T20:21:26.071Z,10.97
2018-02-02T20:23:53.419Z,11.00
2018-02-02T20:26:20.782Z,10.20
2018-02-02T20:28:48.169Z,7.90
2018-02-02T20:31:15.523Z,6.20
2018-02-02T20:33:43.481Z,7.67
2018-02-02T20:36:10.907Z,6.60
2018-02-02T20:38:38.314Z,5.60
2018-02-02T20:41:05.754Z,5.60
2018-02-02T20:43:33.101Z,5.20
2018-02-02T20:46:00.430Z,5.00
2018-02-02T20:48:27.825Z,4.57
2018-02-02T20:50:55.169Z,4.43
2018-02-02T20:53:22.527Z,3.73
2018-02-02T20:55:49.847Z,4.33
2018-02-02T20:58:17.178Z,3.60
2018-02-02T21:00:44.533Z,4.30
2018-02-02T21:03:11.884Z,3.63
2018-02-02T21:05:39.243Z,4.77
2018-02-02T21:08:06.618Z,4.23
2018-02-02T21:10:33.969Z,3.90
2018-02-02T21:13:01.295Z,4.10
2018-02-02T21:15:28.666Z,4.27
2018-02-02T21:17:56.004Z,3.83
2018-02-02T21:20:23.354Z,3.83
2018-02-02T21:22:50.793Z,3.77
2018-02-02T21:25:18.114Z,3.60
2018-02-02T21:27:45.518Z,3.70
2018-02-02T21:30:12.890Z,3.93
2018-02-02T21:32:40.336Z,4.30
2018-02-02T21:35:07.718Z,5.20
2018-02-02T21:37:35.102Z,5.60
2018-02-02T21:40:02.576Z,5.67
2018-02-02T21:42:29.895Z,5.30
2018-02-02T21:44:57.252Z,7.30
2018-02-02T21:47:24.738Z,5.53
2018-02-02T21:49:52.102Z,6.60
2018-02-02T21:52:19.628Z,5.80
2018-02-02T21:54:47.032Z,6.27
2018-02-02T21:57:14.437Z,6.67
2018-02-02T21:59:41.763Z,5.93
2018-02-02T22:02:09.114Z,4.60
2018-02-02T22:04:36.439Z,4.70
2018-02-02T22:07:03.787Z,5.07
2018-02-02T22:09:31.115Z,5.30
2018-02-02T22:11:58.480Z,6.43
2018-02-02T22:14:25.810Z,4.80
2018-02-02T22:16:53.133Z,5.20
2018-02-02T22:19:20.581Z,5.70
2018-02-02T22:21:47.915Z,5.57
2018-02-02T22:24:15.268Z,5.50
2018-02-02T22:26:42.598Z,6.13
2018-02-02T22:29:09.990Z,6.10
2018-02-02T22:31:37.322Z,6.30
2018-02-02T22:34:04.670Z,6.37
2018-02-02T22:36:32.000Z,5.80
2018-02-02T22:38:59.401Z,6.50
2018-02-02T22:41:26.730Z,5.80
2018-02-02T22:43:54.054Z,5.87
2018-02-02T22:46:21.407Z,5.90
2018-02-02T22:48:48.738Z,5.50
2018-02-02T22:51:16.098Z,5.00
2018-02-02T22:53:44.866Z,5.20
2018-02-02T22:56:12.343Z,4.50
2018-02-02T22:58:39.701Z,4.13
2018-02-02T23:01:07.060Z,4.60
2018-02-02T23:03:34.400Z,3.77
2018-02-02T23:06:01.913Z,4.30
2018-02-02T23:08:29.782Z,5.35
2018-02-02T23:10:57.176Z,4.50
2018-02-02T23:13:24.572Z,4.83
2018-02-02T23:15:51.933Z,4.93
2018-02-02T23:18:19.305Z,4.70
2018-02-02T23:20:46.634Z,5.57
2018-02-02T23:23:14.013Z,4.10
2018-02-02T23:25:41.350Z,4.00
2018-02-02T23:28:08.732Z,4.60
2018-02-02T23:30:36.068Z,5.70
2018-02-02T23:33:03.421Z,5.37
2018-02-02T23:35:30.771Z,4.87
2018-02-02T23:37:58.105Z,7.30
2018-02-02T23:40:25.494Z,5.77
2018-02-02T23:42:52.817Z,4.83
2018-02-02T23:45:20.377Z,4.67
2018-02-02T23:47:47.710Z,4.57
2018-02-02T23:50:15.038Z,4.40
2018-02-02T23:52:42.474Z,4.10
2018-02-02T23:55:09.805Z,4.03
2018-02-02T23:57:37.167Z,5.17
